sensor_id;sensor_type;location;lat;lon;timestamp;temperature;humidity
39525;DHT22;25203;50.754;6.978;2024-03-08T00:00:49;3.60;99.50
39525;DHT22;25203;50.754;6.978;2024-03-08T00:02:51;3.60;99.60
39525;DHT22;25203;50.754;6.978;2024-03-08T00:04:52;3.60;99.60
39525;DHT22;25203;50.754;6.978;2024-03-08T00:06:52;3.60;99.80
39525;DHT22;25203;50.754;6.978;2024-03-08T00:08:53;3.60;99.90
39525;DHT22;25203;50.754;6.978;2024-03-08T00:10:53;3.60;99.80
39525;DHT22;25203;50.754;6.978;2024-03-08T00:12:54;3.60;99.90
39525;DHT22;25203;50.754;6.978;2024-03-08T00:14:55;3.50;99.90
39525;DHT22;25203;50.754;6.978;2024-03-08T00:16:55;3.50;99.90
39525;DHT22;25203;50.754;6.978;2024-03-08T00:18:56;3.50;99.90
39525;DHT22;25203;50.754;6.978;2024-03-08T00:20:56;3.50;99.90
39525;DHT22;25203;50.754;6.978;2024-03-08T00:22:57;3.50;99.90
39525;DHT22;25203;50.754;6.978;2024-03-08T00:24:58;3.40;99.90
39525;DHT22;25203;50.754;6.978;2024-03-08T00:26:58;3.40;99.90
39525;DHT22;25203;50.754;6.978;2024-03-08T00:28:59;3.40;99.90
39525;DHT22;25203;50.754;6.978;2024-03-08T00:31:00;3.40;99.90
39525;DHT22;25203;50.754;6.978;2024-03-08T00:33:01;3.40;99.90
39525;DHT22;25203;50.754;6.978;2024-03-08T00:35:02;3.40;99.90
39525;DHT22;25203;50.754;6.978;2024-03-08T00:37:03;3.30;99.90
39525;DHT22;25203;50.754;6.978;2024-03-08T00:39:04;3.30;99.90
39525;DHT22;25203;50.754;6.978;2024-03-08T00:41:06;3.30;99.90
39525;DHT22;25203;50.754;6.978;2024-03-08T00:43:08;3.30;99.90
39525;DHT22;25203;50.754;6.978;2024-03-08T00:45:09;3.20;99.90
39525;DHT22;25203;50.754;6.978;2024-03-08T00:47:10;3.20;99.90
39525;DHT22;25203;50.754;6.978;2024-03-08T00:49:11;3.10;99.90
39525;DHT22;25203;50.754;6.978;2024-03-08T00:51:12;3.10;99.90
39525;DHT22;25203;50.754;6.978;2024-03-08T00:53:15;3.10;99.90
39525;DHT22;25203;50.754;6.978;2024-03-08T00:55:17;3.10;99.90
39525;DHT22;25203;50.754;6.978;2024-03-08T00:57:17;3.10;99.90
39525;DHT22;25203;50.754;6.978;2024-03-08T00:59:18;3.10;99.90
39525;DHT22;25203;50.754;6.978;2024-03-08T01:01:19;3.00;99.90
39525;DHT22;25203;50.754;6.978;2024-03-08T01:03:19;3.00;99.90
39525;DHT22;25203;50.754;6.978;2024-03-08T01:05:20;3.00;99.90
39525;DHT22;25203;50.754;6.978;2024-03-08T01:07:21;3.00;99.90
39525;DHT22;25203;50.754;6.978;2024-03-08T01:09:25;3.00;99.90
39525;DHT22;25203;50.754;6.978;2024-03-08T01:11:27;2.90;99.90
39525;DHT22;25203;50.754;6.978;2024-03-08T01:13:28;2.90;99.90
39525;DHT22;25203;50.754;6.978;2024-03-08T01:15:29;2.90;99.90
39525;DHT22;25203;50.754;6.978;2024-03-08T01:17:30;2.90;99.90
39525;DHT22;25203;50.754;6.978;2024-03-08T01:19:31;2.90;99.90
39525;DHT22;25203;50.754;6.978;2024-03-08T01:21:33;2.90;99.90
39525;DHT22;25203;50.754;6.978;2024-03-08T01:23:34;2.90;99.90
39525;DHT22;25203;50.754;6.978;2024-03-08T01:25:35;2.90;99.90
39525;DHT22;25203;50.754;6.978;2024-03-08T01:27:35;2.90;99.90
39525;DHT22;25203;50.754;6.978;2024-03-08T01:29:37;2.80;99.90
39525;DHT22;25203;50.754;6.978;2024-03-08T01:31:38;2.80;99.90
39525;DHT22;25203;50.754;6.978;2024-03-08T01:33:38;2.80;99.90
39525;DHT22;25203;50.754;6.978;2024-03-08T01:35:39;2.80;99.90
39525;DHT22;25203;50.754;6.978;2024-03-08T01:37:41;2.80;99.90
39525;DHT22;25203;50.754;6.978;2024-03-08T01:39:42;2.70;99.90
39525;DHT22;25203;50.754;6.978;2024-03-08T01:41:43;2.70;99.90
39525;DHT22;25203;50.754;6.978;2024-03-08T01:43:44;2.70;99.90
39525;DHT22;25203;50.754;6.978;2024-03-08T01:45:45;2.60;99.90
39525;DHT22;25203;50.754;6.978;2024-03-08T01:47:46;2.60;99.90
39525;DHT22;25203;50.754;6.978;2024-03-08T01:49:49;2.60;99.90
39525;DHT22;25203;50.754;6.978;2024-03-08T01:51:51;2.60;99.90
39525;DHT22;25203;50.754;6.978;2024-03-08T01:53:52;2.60;99.90
39525;DHT22;25203;50.754;6.978;2024-03-08T01:55:57;2.60;99.90
39525;DHT22;25203;50.754;6.978;2024-03-08T01:57:59;2.60;99.90
39525;DHT22;25203;50.754;6.978;2024-03-08T02:00:01;2.50;99.90
39525;DHT22;25203;50.754;6.978;2024-03-08T02:02:04;2.50;99.90
39525;DHT22;25203;50.754;6.978;2024-03-08T02:04:06;2.40;99.90
39525;DHT22;25203;50.754;6.978;2024-03-08T02:06:07;2.40;99.90
39525;DHT22;25203;50.754;6.978;2024-03-08T02:08:10;2.40;99.90
39525;DHT22;25203;50.754;6.978;2024-03-08T02:10:14;2.30;99.90
39525;DHT22;25203;50.754;6.978;2024-03-08T02:12:15;2.30;99.90
39525;DHT22;25203;50.754;6.978;2024-03-08T02:14:17;2.20;99.90
39525;DHT22;25203;50.754;6.978;2024-03-08T02:16:22;2.20;99.90
39525;DHT22;25203;50.754;6.978;2024-03-08T02:18:23;2.10;99.90
39525;DHT22;25203;50.754;6.978;2024-03-08T02:20:24;2.00;99.90
39525;DHT22;25203;50.754;6.978;2024-03-08T02:22:25;2.00;99.90
39525;DHT22;25203;50.754;6.978;2024-03-08T02:24:25;1.90;99.90
39525;DHT22;25203;50.754;6.978;2024-03-08T02:26:26;1.80;99.90
39525;DHT22;25203;50.754;6.978;2024-03-08T02:28:27;1.70;99.90
39525;DHT22;25203;50.754;6.978;2024-03-08T02:30:29;1.70;99.90
39525;DHT22;25203;50.754;6.978;2024-03-08T02:32:30;1.70;99.90
39525;DHT22;25203;50.754;6.978;2024-03-08T02:34:33;1.60;99.90
39525;DHT22;25203;50.754;6.978;2024-03-08T02:36:33;1.50;99.90
39525;DHT22;25203;50.754;6.978;2024-03-08T02:38:35;1.50;99.90
39525;DHT22;25203;50.754;6.978;2024-03-08T02:40:35;1.50;99.90
39525;DHT22;25203;50.754;6.978;2024-03-08T02:42:36;1.60;99.90
39525;DHT22;25203;50.754;6.978;2024-03-08T02:44:37;1.60;99.90
39525;DHT22;25203;50.754;6.978;2024-03-08T02:46:37;1.60;99.90
39525;DHT22;25203;50.754;6.978;2024-03-08T02:48:38;1.70;99.90
39525;DHT22;25203;50.754;6.978;2024-03-08T02:50:40;1.70;99.90
39525;DHT22;25203;50.754;6.978;2024-03-08T02:52:43;1.60;99.90
39525;DHT22;25203;50.754;6.978;2024-03-08T02:54:43;1.60;99.90
39525;DHT22;25203;50.754;6.978;2024-03-08T02:56:46;1.60;99.90
39525;DHT22;25203;50.754;6.978;2024-03-08T02:58:47;1.70;99.90
39525;DHT22;25203;50.754;6.978;2024-03-08T03:00:49;1.70;99.90
39525;DHT22;25203;50.754;6.978;2024-03-08T03:02:50;1.70;99.90
39525;DHT22;25203;50.754;6.978;2024-03-08T03:04:54;1.70;99.90
39525;DHT22;25203;50.754;6.978;2024-03-08T03:06:56;1.70;99.90
39525;DHT22;25203;50.754;6.978;2024-03-08T03:08:57;1.70;99.90
39525;DHT22;25203;50.754;6.978;2024-03-08T03:10:57;1.60;99.90
39525;DHT22;25203;50.754;6.978;2024-03-08T03:12:58;1.60;99.90
39525;DHT22;25203;50.754;6.978;2024-03-08T03:14:59;1.50;99.90
39525;DHT22;25203;50.754;6.978;2024-03-08T03:16:59;1.40;99.90
39525;DHT22;25203;50.754;6.978;2024-03-08T03:19:00;1.30;99.90
39525;DHT22;25203;50.754;6.978;2024-03-08T03:21:02;1.20;99.90
39525;DHT22;25203;50.754;6.978;2024-03-08T03:23:08;1.10;99.90
39525;DHT22;25203;50.754;6.978;2024-03-08T03:25:09;1.00;99.90
39525;DHT22;25203;50.754;6.978;2024-03-08T03:27:10;1.00;99.90
39525;DHT22;25203;50.754;6.978;2024-03-08T03:29:13;0.90;99.90
39525;DHT22;25203;50.754;6.978;2024-03-08T03:31:14;0.80;99.90
39525;DHT22;25203;50.754;6.978;2024-03-08T03:33:15;0.80;99.90
39525;DHT22;25203;50.754;6.978;2024-03-08T03:35:17;0.70;99.90
39525;DHT22;25203;50.754;6.978;2024-03-08T03:37:19;0.60;99.90
39525;DHT22;25203;50.754;6.978;2024-03-08T03:39:20;0.50;99.90
39525;DHT22;25203;50.754;6.978;2024-03-08T03:41:22;0.50;99.90
39525;DHT22;25203;50.754;6.978;2024-03-08T03:43:24;0.50;99.90
39525;DHT22;25203;50.754;6.978;2024-03-08T03:45:25;0.50;99.90
39525;DHT22;25203;50.754;6.978;2024-03-08T03:47:25;0.50;99.90
39525;DHT22;25203;50.754;6.978;2024-03-08T03:49:27;0.50;99.90
39525;DHT22;25203;50.754;6.978;2024-03-08T03:51:29;0.50;99.90
39525;DHT22;25203;50.754;6.978;2024-03-08T03:53:30;0.50;99.90
39525;DHT22;25203;50.754;6.978;2024-03-08T03:55:31;0.50;99.90
39525;DHT22;25203;50.754;6.978;2024-03-08T03:57:32;0.60;99.90
39525;DHT22;25203;50.754;6.978;2024-03-08T03:59:32;0.60;99.90
39525;DHT22;25203;50.754;6.978;2024-03-08T04:01:33;0.60;99.90
39525;DHT22;25203;50.754;6.978;2024-03-08T04:03:34;0.60;99.90
39525;DHT22;25203;50.754;6.978;2024-03-08T04:05:35;0.70;99.90
39525;DHT22;25203;50.754;6.978;2024-03-08T04:07:36;0.70;99.90
39525;DHT22;25203;50.754;6.978;2024-03-08T04:09:36;0.70;99.90
39525;DHT22;25203;50.754;6.978;2024-03-08T04:11:38;0.80;99.90
39525;DHT22;25203;50.754;6.978;2024-03-08T04:13:38;0.80;99.90
39525;DHT22;25203;50.754;6.978;2024-03-08T04:15:39;0.80;99.90
39525;DHT22;25203;50.754;6.978;2024-03-08T04:17:39;0.80;99.90
39525;DHT22;25203;50.754;6.978;2024-03-08T04:19:40;0.90;99.90
39525;DHT22;25203;50.754;6.978;2024-03-08T04:21:40;0.90;99.90
39525;DHT22;25203;50.754;6.978;2024-03-08T04:23:42;1.00;99.90
39525;DHT22;25203;50.754;6.978;2024-03-08T04:25:45;1.00;99.90
39525;DHT22;25203;50.754;6.978;2024-03-08T04:27:46;1.00;99.90
39525;DHT22;25203;50.754;6.978;2024-03-08T04:29:49;1.10;99.90
39525;DHT22;25203;50.754;6.978;2024-03-08T04:31:49;1.10;99.90
39525;DHT22;25203;50.754;6.978;2024-03-08T04:33:50;1.10;99.90
39525;DHT22;25203;50.754;6.978;2024-03-08T04:35:50;1.20;99.90
39525;DHT22;25203;50.754;6.978;2024-03-08T04:37:51;1.20;99.90
39525;DHT22;25203;50.754;6.978;2024-03-08T04:39:52;1.20;99.90
39525;DHT22;25203;50.754;6.978;2024-03-08T04:41:52;1.30;99.90
39525;DHT22;25203;50.754;6.978;2024-03-08T04:43:55;1.30;99.90
39525;DHT22;25203;50.754;6.978;2024-03-08T04:45:58;1.30;99.90
39525;DHT22;25203;50.754;6.978;2024-03-08T04:47:58;1.20;99.90
39525;DHT22;25203;50.754;6.978;2024-03-08T04:49:59;1.20;99.90
39525;DHT22;25203;50.754;6.978;2024-03-08T04:52:03;1.10;99.90
39525;DHT22;25203;50.754;6.978;2024-03-08T04:54:04;1.00;99.90
39525;DHT22;25203;50.754;6.978;2024-03-08T04:56:07;1.00;99.90
39525;DHT22;25203;50.754;6.978;2024-03-08T04:58:08;0.90;99.90
39525;DHT22;25203;50.754;6.978;2024-03-08T05:00:09;0.80;99.90
39525;DHT22;25203;50.754;6.978;2024-03-08T05:02:11;0.80;99.90
39525;DHT22;25203;50.754;6.978;2024-03-08T05:04:12;0.80;99.90
39525;DHT22;25203;50.754;6.978;2024-03-08T05:06:12;0.70;99.90
39525;DHT22;25203;50.754;6.978;2024-03-08T05:08:13;0.70;99.90
39525;DHT22;25203;50.754;6.978;2024-03-08T05:10:14;0.60;99.90
39525;DHT22;25203;50.754;6.978;2024-03-08T05:12:18;0.60;99.90
39525;DHT22;25203;50.754;6.978;2024-03-08T05:14:19;0.60;99.90
39525;DHT22;25203;50.754;6.978;2024-03-08T05:16:21;0.50;99.90
39525;DHT22;25203;50.754;6.978;2024-03-08T05:18:22;0.50;99.90
39525;DHT22;25203;50.754;6.978;2024-03-08T05:20:23;0.50;99.90
39525;DHT22;25203;50.754;6.978;2024-03-08T05:22:24;0.50;99.90
39525;DHT22;25203;50.754;6.978;2024-03-08T05:24:24;0.60;99.90
39525;DHT22;25203;50.754;6.978;2024-03-08T05:26:25;0.60;99.90
39525;DHT22;25203;50.754;6.978;2024-03-08T05:28:25;0.70;99.90
39525;DHT22;25203;50.754;6.978;2024-03-08T05:30:26;0.80;99.90
39525;DHT22;25203;50.754;6.978;2024-03-08T05:32:27;0.80;99.90
39525;DHT22;25203;50.754;6.978;2024-03-08T05:34:28;0.80;99.90
39525;DHT22;25203;50.754;6.978;2024-03-08T05:36:29;0.70;99.90
39525;DHT22;25203;50.754;6.978;2024-03-08T05:38:30;0.70;99.90
39525;DHT22;25203;50.754;6.978;2024-03-08T05:40:31;0.70;99.90
39525;DHT22;25203;50.754;6.978;2024-03-08T05:42:35;0.60;99.90
39525;DHT22;25203;50.754;6.978;2024-03-08T05:44:36;0.60;99.90
39525;DHT22;25203;50.754;6.978;2024-03-08T05:46:37;0.60;99.90
39525;DHT22;25203;50.754;6.978;2024-03-08T05:48:38;0.60;99.90
39525;DHT22;25203;50.754;6.978;2024-03-08T05:50:38;0.50;99.90
39525;DHT22;25203;50.754;6.978;2024-03-08T05:52:39;0.50;99.90
39525;DHT22;25203;50.754;6.978;2024-03-08T05:54:40;0.50;99.90
39525;DHT22;25203;50.754;6.978;2024-03-08T05:56:41;0.40;99.90
39525;DHT22;25203;50.754;6.978;2024-03-08T05:58:44;0.40;99.90
39525;DHT22;25203;50.754;6.978;2024-03-08T06:00:46;0.30;99.90
39525;DHT22;25203;50.754;6.978;2024-03-08T06:02:46;0.30;99.90
39525;DHT22;25203;50.754;6.978;2024-03-08T06:04:47;0.30;99.90
39525;DHT22;25203;50.754;6.978;2024-03-08T06:06:47;0.30;99.90
39525;DHT22;25203;50.754;6.978;2024-03-08T06:08:49;0.20;99.90
39525;DHT22;25203;50.754;6.978;2024-03-08T06:10:49;0.20;99.90
39525;DHT22;25203;50.754;6.978;2024-03-08T06:12:52;0.20;99.90
39525;DHT22;25203;50.754;6.978;2024-03-08T06:14:54;0.20;99.90
39525;DHT22;25203;50.754;6.978;2024-03-08T06:16:55;0.20;99.90
39525;DHT22;25203;50.754;6.978;2024-03-08T06:19:04;0.30;99.90
39525;DHT22;25203;50.754;6.978;2024-03-08T06:21:06;0.40;99.90
39525;DHT22;25203;50.754;6.978;2024-03-08T06:23:07;0.40;99.90
39525;DHT22;25203;50.754;6.978;2024-03-08T06:25:08;0.50;99.90
39525;DHT22;25203;50.754;6.978;2024-03-08T06:27:10;0.70;99.90
39525;DHT22;25203;50.754;6.978;2024-03-08T06:29:10;0.80;99.90
39525;DHT22;25203;50.754;6.978;2024-03-08T06:31:11;0.90;99.90
39525;DHT22;25203;50.754;6.978;2024-03-08T06:33:12;1.00;99.90
39525;DHT22;25203;50.754;6.978;2024-03-08T06:35:12;1.20;99.90
39525;DHT22;25203;50.754;6.978;2024-03-08T06:37:16;1.30;99.90
39525;DHT22;25203;50.754;6.978;2024-03-08T06:39:17;1.40;99.90
39525;DHT22;25203;50.754;6.978;2024-03-08T06:41:18;1.50;99.90
39525;DHT22;25203;50.754;6.978;2024-03-08T06:43:18;1.50;99.90
39525;DHT22;25203;50.754;6.978;2024-03-08T06:45:19;1.60;99.90
39525;DHT22;25203;50.754;6.978;2024-03-08T06:47:21;1.70;99.90
39525;DHT22;25203;50.754;6.978;2024-03-08T06:49:26;1.80;99.90
39525;DHT22;25203;50.754;6.978;2024-03-08T06:51:27;1.80;99.90
39525;DHT22;25203;50.754;6.978;2024-03-08T06:53:27;1.90;99.90
39525;DHT22;25203;50.754;6.978;2024-03-08T06:55:28;2.10;99.90
39525;DHT22;25203;50.754;6.978;2024-03-08T06:57:29;2.30;99.90
39525;DHT22;25203;50.754;6.978;2024-03-08T06:59:30;2.50;99.90
39525;DHT22;25203;50.754;6.978;2024-03-08T07:01:31;2.50;99.90
39525;DHT22;25203;50.754;6.978;2024-03-08T07:03:32;2.60;99.90
39525;DHT22;25203;50.754;6.978;2024-03-08T07:05:33;2.60;99.90
39525;DHT22;25203;50.754;6.978;2024-03-08T07:07:33;2.70;99.90
39525;DHT22;25203;50.754;6.978;2024-03-08T07:09:34;2.70;99.90
39525;DHT22;25203;50.754;6.978;2024-03-08T07:11:35;2.80;99.90
39525;DHT22;25203;50.754;6.978;2024-03-08T07:13:37;2.90;99.90
39525;DHT22;25203;50.754;6.978;2024-03-08T07:15:39;3.00;99.90
39525;DHT22;25203;50.754;6.978;2024-03-08T07:17:40;3.00;99.90
39525;DHT22;25203;50.754;6.978;2024-03-08T07:19:40;3.10;99.90
39525;DHT22;25203;50.754;6.978;2024-03-08T07:21:41;3.20;99.90
39525;DHT22;25203;50.754;6.978;2024-03-08T07:23:42;3.30;99.90
39525;DHT22;25203;50.754;6.978;2024-03-08T07:25:48;3.40;99.90
39525;DHT22;25203;50.754;6.978;2024-03-08T07:27:53;3.50;99.90
39525;DHT22;25203;50.754;6.978;2024-03-08T07:29:54;3.70;99.90
39525;DHT22;25203;50.754;6.978;2024-03-08T07:31:56;3.90;99.90
39525;DHT22;25203;50.754;6.978;2024-03-08T07:34:08;3.90;99.90
39525;DHT22;25203;50.754;6.978;2024-03-08T07:36:08;4.10;99.90
39525;DHT22;25203;50.754;6.978;2024-03-08T07:38:09;4.30;99.90
39525;DHT22;25203;50.754;6.978;2024-03-08T07:40:10;4.60;99.90
39525;DHT22;25203;50.754;6.978;2024-03-08T07:42:14;5.40;99.90
39525;DHT22;25203;50.754;6.978;2024-03-08T07:44:15;6.90;99.90
39525;DHT22;25203;50.754;6.978;2024-03-08T07:46:15;8.40;97.10
39525;DHT22;25203;50.754;6.978;2024-03-08T07:48:18;9.20;95.20
39525;DHT22;25203;50.754;6.978;2024-03-08T07:50:20;10.70;94.10
39525;DHT22;25203;50.754;6.978;2024-03-08T07:52:23;12.00;91.50
39525;DHT22;25203;50.754;6.978;2024-03-08T07:54:23;13.10;89.10
39525;DHT22;25203;50.754;6.978;2024-03-08T07:56:26;14.10;86.80
39525;DHT22;25203;50.754;6.978;2024-03-08T07:58:26;15.20;82.80
39525;DHT22;25203;50.754;6.978;2024-03-08T08:00:27;16.10;79.90
39525;DHT22;25203;50.754;6.978;2024-03-08T08:02:28;16.70;76.70
39525;DHT22;25203;50.754;6.978;2024-03-08T08:04:28;17.20;74.80
39525;DHT22;25203;50.754;6.978;2024-03-08T08:06:29;17.50;72.70
39525;DHT22;25203;50.754;6.978;2024-03-08T08:08:33;17.80;72.50
39525;DHT22;25203;50.754;6.978;2024-03-08T08:10:34;18.10;71.20
39525;DHT22;25203;50.754;6.978;2024-03-08T08:12:34;18.50;69.60
39525;DHT22;25203;50.754;6.978;2024-03-08T08:14:35;19.20;68.50
39525;DHT22;25203;50.754;6.978;2024-03-08T08:16:36;19.60;66.90
39525;DHT22;25203;50.754;6.978;2024-03-08T08:18:37;19.80;66.40
39525;DHT22;25203;50.754;6.978;2024-03-08T08:20:39;19.80;64.70
39525;DHT22;25203;50.754;6.978;2024-03-08T08:22:39;19.60;65.40
39525;DHT22;25203;50.754;6.978;2024-03-08T08:24:40;19.90;63.10
39525;DHT22;25203;50.754;6.978;2024-03-08T08:26:41;19.70;64.20
39525;DHT22;25203;50.754;6.978;2024-03-08T08:28:42;20.30;63.70
39525;DHT22;25203;50.754;6.978;2024-03-08T08:30:44;20.60;62.90
39525;DHT22;25203;50.754;6.978;2024-03-08T08:32:44;21.30;62.70
39525;DHT22;25203;50.754;6.978;2024-03-08T08:34:47;21.50;62.20
39525;DHT22;25203;50.754;6.978;2024-03-08T08:36:48;21.50;60.40
39525;DHT22;25203;50.754;6.978;2024-03-08T08:38:48;20.80;61.00
39525;DHT22;25203;50.754;6.978;2024-03-08T08:40:49;19.80;60.60
39525;DHT22;25203;50.754;6.978;2024-03-08T08:42:50;20.10;61.70
39525;DHT22;25203;50.754;6.978;2024-03-08T08:44:51;19.40;62.00
39525;DHT22;25203;50.754;6.978;2024-03-08T08:46:52;19.00;62.70
39525;DHT22;25203;50.754;6.978;2024-03-08T08:48:54;18.70;61.50
39525;DHT22;25203;50.754;6.978;2024-03-08T08:50:54;17.50;62.80
39525;DHT22;25203;50.754;6.978;2024-03-08T08:52:55;16.00;65.30
39525;DHT22;25203;50.754;6.978;2024-03-08T08:54:56;16.20;65.70
39525;DHT22;25203;50.754;6.978;2024-03-08T08:56:57;16.90;65.30
39525;DHT22;25203;50.754;6.978;2024-03-08T08:58:57;17.80;63.90
39525;DHT22;25203;50.754;6.978;2024-03-08T09:00:58;16.10;65.20
39525;DHT22;25203;50.754;6.978;2024-03-08T09:03:00;14.50;67.50
39525;DHT22;25203;50.754;6.978;2024-03-08T09:05:00;13.40;69.50
39525;DHT22;25203;50.754;6.978;2024-03-08T09:07:01;13.40;70.10
39525;DHT22;25203;50.754;6.978;2024-03-08T09:09:02;14.30;69.40
39525;DHT22;25203;50.754;6.978;2024-03-08T09:11:04;14.20;68.30
39525;DHT22;25203;50.754;6.978;2024-03-08T09:13:05;14.10;69.30
39525;DHT22;25203;50.754;6.978;2024-03-08T09:15:07;14.20;69.60
39525;DHT22;25203;50.754;6.978;2024-03-08T09:17:11;14.10;69.40
39525;DHT22;25203;50.754;6.978;2024-03-08T09:19:12;13.50;70.10
39525;DHT22;25203;50.754;6.978;2024-03-08T09:21:12;13.50;69.80
39525;DHT22;25203;50.754;6.978;2024-03-08T09:23:13;13.10;70.90
39525;DHT22;25203;50.754;6.978;2024-03-08T09:25:15;13.10;71.80
39525;DHT22;25203;50.754;6.978;2024-03-08T09:27:16;13.00;70.80
39525;DHT22;25203;50.754;6.978;2024-03-08T09:29:18;12.50;71.70
39525;DHT22;25203;50.754;6.978;2024-03-08T09:31:19;12.20;72.40
39525;DHT22;25203;50.754;6.978;2024-03-08T09:33:20;12.60;72.70
39525;DHT22;25203;50.754;6.978;2024-03-08T09:35:21;12.70;71.40
39525;DHT22;25203;50.754;6.978;2024-03-08T09:37:21;12.60;71.70
39525;DHT22;25203;50.754;6.978;2024-03-08T09:39:23;12.40;72.30
39525;DHT22;25203;50.754;6.978;2024-03-08T09:41:23;13.20;71.20
39525;DHT22;25203;50.754;6.978;2024-03-08T09:43:24;13.60;70.00
39525;DHT22;25203;50.754;6.978;2024-03-08T09:45:25;14.50;68.80
39525;DHT22;25203;50.754;6.978;2024-03-08T09:47:28;14.90;68.80
39525;DHT22;25203;50.754;6.978;2024-03-08T09:49:34;15.20;67.60
39525;DHT22;25203;50.754;6.978;2024-03-08T09:51:35;14.60;68.50
39525;DHT22;25203;50.754;6.978;2024-03-08T09:53:36;13.60;69.50
39525;DHT22;25203;50.754;6.978;2024-03-08T09:55:38;13.40;71.10
39525;DHT22;25203;50.754;6.978;2024-03-08T09:57:43;13.50;72.20
39525;DHT22;25203;50.754;6.978;2024-03-08T10:00:03;14.30;69.50
39525;DHT22;25203;50.754;6.978;2024-03-08T10:02:18;14.30;68.20
39525;DHT22;25203;50.754;6.978;2024-03-08T10:04:19;13.60;69.30
39525;DHT22;25203;50.754;6.978;2024-03-08T10:06:23;13.10;70.30
39525;DHT22;25203;50.754;6.978;2024-03-08T10:08:24;13.30;71.00
39525;DHT22;25203;50.754;6.978;2024-03-08T10:10:24;14.30;69.90
39525;DHT22;25203;50.754;6.978;2024-03-08T10:12:25;14.80;67.60
39525;DHT22;25203;50.754;6.978;2024-03-08T10:14:25;14.60;67.90
39525;DHT22;25203;50.754;6.978;2024-03-08T10:16:30;14.20;68.70
39525;DHT22;25203;50.754;6.978;2024-03-08T10:18:30;14.10;69.80
39525;DHT22;25203;50.754;6.978;2024-03-08T10:20:33;13.60;68.90
39525;DHT22;25203;50.754;6.978;2024-03-08T10:22:34;13.80;69.40
39525;DHT22;25203;50.754;6.978;2024-03-08T10:24:35;14.10;69.10
39525;DHT22;25203;50.754;6.978;2024-03-08T10:26:37;14.60;69.20
39525;DHT22;25203;50.754;6.978;2024-03-08T10:28:37;15.60;67.00
39525;DHT22;25203;50.754;6.978;2024-03-08T10:30:38;15.10;66.80
39525;DHT22;25203;50.754;6.978;2024-03-08T10:32:39;14.60;68.30
39525;DHT22;25203;50.754;6.978;2024-03-08T10:34:41;14.90;67.80
39525;DHT22;25203;50.754;6.978;2024-03-08T10:36:42;15.70;67.10
39525;DHT22;25203;50.754;6.978;2024-03-08T10:38:43;16.20;66.80
39525;DHT22;25203;50.754;6.978;2024-03-08T10:40:47;16.70;66.20
39525;DHT22;25203;50.754;6.978;2024-03-08T10:42:59;17.90;65.50
39525;DHT22;25203;50.754;6.978;2024-03-08T10:45:12;18.40;62.80
39525;DHT22;25203;50.754;6.978;2024-03-08T10:47:22;18.50;63.00
39525;DHT22;25203;50.754;6.978;2024-03-08T10:49:37;17.80;63.40
39525;DHT22;25203;50.754;6.978;2024-03-08T10:51:40;17.80;63.50
39525;DHT22;25203;50.754;6.978;2024-03-08T10:53:43;18.40;62.70
39525;DHT22;25203;50.754;6.978;2024-03-08T10:55:45;18.40;62.30
39525;DHT22;25203;50.754;6.978;2024-03-08T10:57:47;18.60;62.80
39525;DHT22;25203;50.754;6.978;2024-03-08T10:59:48;19.70;61.80
39525;DHT22;25203;50.754;6.978;2024-03-08T11:01:50;20.00;60.60
39525;DHT22;25203;50.754;6.978;2024-03-08T11:03:51;19.70;59.80
39525;DHT22;25203;50.754;6.978;2024-03-08T11:05:53;18.50;61.50
39525;DHT22;25203;50.754;6.978;2024-03-08T11:07:54;17.10;62.90
39525;DHT22;25203;50.754;6.978;2024-03-08T11:09:55;16.10;64.70
39525;DHT22;25203;50.754;6.978;2024-03-08T11:12:37;15.70;65.00
39525;DHT22;25203;50.754;6.978;2024-03-08T11:14:46;15.30;65.50
39525;DHT22;25203;50.754;6.978;2024-03-08T11:16:49;15.20;66.40
39525;DHT22;25203;50.754;6.978;2024-03-08T11:18:50;16.00;65.90
39525;DHT22;25203;50.754;6.978;2024-03-08T11:20:56;16.40;65.10
39525;DHT22;25203;50.754;6.978;2024-03-08T11:23:04;16.30;64.30
39525;DHT22;25203;50.754;6.978;2024-03-08T11:25:07;16.60;64.80
39525;DHT22;25203;50.754;6.978;2024-03-08T11:27:10;16.30;64.10
39525;DHT22;25203;50.754;6.978;2024-03-08T11:31:31;14.70;66.20
39525;DHT22;25203;50.754;6.978;2024-03-08T11:33:35;14.40;66.80
39525;DHT22;25203;50.754;6.978;2024-03-08T11:35:36;14.50;66.90
39525;DHT22;25203;50.754;6.978;2024-03-08T11:37:37;14.70;66.60
39525;DHT22;25203;50.754;6.978;2024-03-08T11:39:39;14.70;66.70
39525;DHT22;25203;50.754;6.978;2024-03-08T11:41:40;14.90;66.40
39525;DHT22;25203;50.754;6.978;2024-03-08T11:43:42;14.80;65.60
39525;DHT22;25203;50.754;6.978;2024-03-08T11:45:43;14.50;67.00
39525;DHT22;25203;50.754;6.978;2024-03-08T11:47:44;14.40;67.10
39525;DHT22;25203;50.754;6.978;2024-03-08T11:49:46;14.20;67.20
39525;DHT22;25203;50.754;6.978;2024-03-08T11:51:53;14.10;69.00
39525;DHT22;25203;50.754;6.978;2024-03-08T11:53:54;14.10;68.10
39525;DHT22;25203;50.754;6.978;2024-03-08T11:55:54;13.40;68.20
39525;DHT22;25203;50.754;6.978;2024-03-08T11:58:03;13.10;69.50
39525;DHT22;25203;50.754;6.978;2024-03-08T12:00:05;13.40;69.50
39525;DHT22;25203;50.754;6.978;2024-03-08T12:02:08;13.40;69.20
39525;DHT22;25203;50.754;6.978;2024-03-08T12:04:12;13.40;68.00
39525;DHT22;25203;50.754;6.978;2024-03-08T12:06:13;13.10;69.20
39525;DHT22;25203;50.754;6.978;2024-03-08T12:08:14;12.90;69.90
39525;DHT22;25203;50.754;6.978;2024-03-08T12:10:18;13.20;69.40
39525;DHT22;25203;50.754;6.978;2024-03-08T12:12:19;13.70;69.20
39525;DHT22;25203;50.754;6.978;2024-03-08T12:14:21;14.60;68.40
39525;DHT22;25203;50.754;6.978;2024-03-08T12:16:23;15.40;66.90
39525;DHT22;25203;50.754;6.978;2024-03-08T12:18:25;15.70;66.50
39525;DHT22;25203;50.754;6.978;2024-03-08T12:20:28;15.40;66.10
39525;DHT22;25203;50.754;6.978;2024-03-08T12:22:30;14.70;66.50
39525;DHT22;25203;50.754;6.978;2024-03-08T12:24:31;14.20;67.20
39525;DHT22;25203;50.754;6.978;2024-03-08T12:26:31;14.00;68.00
39525;DHT22;25203;50.754;6.978;2024-03-08T12:28:32;13.40;67.80
39525;DHT22;25203;50.754;6.978;2024-03-08T12:30:33;12.80;69.10
39525;DHT22;25203;50.754;6.978;2024-03-08T12:32:34;12.40;70.10
39525;DHT22;25203;50.754;6.978;2024-03-08T12:34:35;12.30;71.40
39525;DHT22;25203;50.754;6.978;2024-03-08T12:36:36;12.60;71.80
39525;DHT22;25203;50.754;6.978;2024-03-08T12:38:37;12.70;70.60
39525;DHT22;25203;50.754;6.978;2024-03-08T12:40:38;12.60;70.80
39525;DHT22;25203;50.754;6.978;2024-03-08T12:42:43;12.80;70.30
39525;DHT22;25203;50.754;6.978;2024-03-08T12:44:45;12.90;70.20
39525;DHT22;25203;50.754;6.978;2024-03-08T12:46:47;13.20;68.90
39525;DHT22;25203;50.754;6.978;2024-03-08T12:48:48;13.30;68.70
39525;DHT22;25203;50.754;6.978;2024-03-08T12:50:49;13.30;70.00
39525;DHT22;25203;50.754;6.978;2024-03-08T12:52:51;13.50;69.30
39525;DHT22;25203;50.754;6.978;2024-03-08T12:54:56;14.00;67.90
39525;DHT22;25203;50.754;6.978;2024-03-08T12:56:57;14.00;68.30
39525;DHT22;25203;50.754;6.978;2024-03-08T12:58:59;14.00;68.20